createdAt,value
2019-01-06T00:00:52.633Z,77.85
2019-01-06T00:03:45.044Z,77.68
2019-01-06T00:06:31.486Z,77.88
2019-01-06T00:09:16.634Z,77.92
2019-01-06T00:12:06.602Z,78.18
2019-01-06T00:14:43.600Z,78.53
2019-01-06T00:17:36.451Z,78.57
2019-01-06T00:20:21.358Z,78.01
2019-01-06T00:23:00.670Z,78.28
2019-01-06T00:25:46.240Z,78.16
2019-01-06T00:28:38.563Z,77.90
2019-01-06T00:31:23.942Z,77.77
2019-01-06T00:34:08.911Z,77.96
2019-01-06T00:37:11.260Z,77.83
2019-01-06T00:39:56.369Z,77.80
2019-01-06T00:42:35.716Z,78.07
2019-01-06T00:45:17.656Z,77.69
2019-01-06T00:48:22.341Z,77.82
2019-01-06T00:51:06.816Z,77.91
2019-01-06T00:53:52.083Z,78.40
2019-01-06T00:56:50.739Z,78.63
2019-01-06T00:59:31.427Z,78.48
2019-01-06T01:02:16.151Z,78.54
2019-01-06T01:05:01.297Z,78.21
2019-01-06T01:07:46.496Z,78.13
2019-01-06T01:10:45.151Z,78.19
2019-01-06T01:13:30.195Z,78.44
2019-01-06T01:16:22.496Z,78.31
2019-01-06T01:19:14.679Z,77.99
2019-01-06T01:22:01.316Z,78.09
2019-01-06T01:24:46.455Z,78.49
2019-01-06T01:27:38.904Z,78.53
2019-01-06T01:30:29.791Z,78.44
2019-01-06T01:33:28.449Z,78.29
2019-01-06T01:36:14.811Z,78.07
2019-01-06T01:39:19.320Z,78.55
2019-01-06T01:41:57.501Z,78.42
2019-01-06T01:45:03.512Z,78.40
2019-01-06T01:47:48.378Z,78.25
2019-01-06T01:50:34.536Z,78.39
2019-01-06T01:53:19.748Z,77.91
2019-01-06T01:56:06.457Z,77.97
2019-01-06T01:58:52.801Z,77.67
2019-01-06T02:01:37.720Z,77.61
2019-01-06T02:04:23.065Z,77.69
2019-01-06T02:07:08.946Z,77.62
2019-01-06T02:09:52.865Z,78.19
2019-01-06T02:12:39.604Z,77.87
2019-01-06T02:15:26.300Z,78.25
2019-01-06T02:18:27.930Z,78.30
2019-01-06T02:21:12.102Z,78.37
2019-01-06T02:24:00.344Z,78.31
2019-01-06T02:26:45.531Z,77.80
2019-01-06T02:29:28.948Z,77.92
2019-01-06T02:32:21.623Z,78.00
2019-01-06T02:35:07.590Z,77.66
2019-01-06T02:37:45.303Z,77.52
2019-01-06T02:40:30.482Z,77.46
2019-01-06T02:43:22.187Z,77.21
2019-01-06T02:46:09.495Z,77.15
2019-01-06T02:48:53.578Z,77.11
2019-01-06T02:51:43.145Z,77.16
2019-01-06T02:54:28.146Z,77.47
2019-01-06T02:57:13.203Z,77.47
2019-01-06T02:59:58.197Z,77.94
2019-01-06T03:02:44.534Z,78.06
2019-01-06T03:05:29.673Z,77.61
2019-01-06T03:08:06.375Z,77.49
2019-01-06T03:11:04.623Z,77.43
2019-01-06T03:13:53.876Z,77.27
2019-01-06T03:16:42.978Z,77.27
2019-01-06T03:19:27.739Z,77.48
2019-01-06T03:22:20.299Z,77.13
2019-01-06T03:25:12.305Z,77.08
2019-01-06T03:27:57.443Z,77.00
2019-01-06T03:30:43.809Z,77.00
2019-01-06T03:33:36.260Z,77.08
2019-01-06T03:36:38.007Z,76.65
2019-01-06T03:39:24.785Z,76.92
2019-01-06T03:42:09.732Z,76.92
2019-01-06T03:44:57.211Z,76.96
2019-01-06T03:47:41.891Z,76.69
2019-01-06T03:50:34.310Z,75.98
2019-01-06T03:53:19.365Z,75.93
2019-01-06T03:56:10.511Z,75.93
2019-01-06T03:58:55.643Z,75.75
2019-01-06T04:01:51.383Z,75.75
2019-01-06T04:04:36.372Z,75.82
2019-01-06T04:07:37.753Z,75.96
2019-01-06T04:10:22.811Z,75.87
2019-01-06T04:13:12.670Z,76.46
2019-01-06T04:15:58.369Z,76.38
2019-01-06T04:18:43.753Z,76.38
2019-01-06T04:21:30.509Z,76.21
2019-01-06T04:24:13.675Z,76.21
2019-01-06T04:26:54.941Z,76.96
2019-01-06T04:29:40.077Z,76.96
2019-01-06T04:32:38.908Z,76.47
2019-01-06T04:35:32.441Z,76.29
2019-01-06T04:38:27.782Z,76.49
2019-01-06T04:41:29.039Z,75.92
2019-01-06T04:44:29.862Z,76.13
2019-01-06T04:47:28.193Z,76.13
2019-01-06T04:50:13.179Z,76.43
2019-01-06T04:53:17.683Z,75.83
2019-01-06T04:56:08.969Z,75.59
2019-01-06T04:58:55.472Z,75.74
2019-01-06T05:01:47.205Z,76.06
2019-01-06T05:04:43.824Z,76.06
2019-01-06T05:07:24.517Z,76.23
2019-01-06T05:10:13.888Z,75.82
2019-01-06T05:12:57.879Z,76.22
2019-01-06T05:15:38.282Z,75.76
2019-01-06T05:18:27.602Z,75.63
2019-01-06T05:21:17.051Z,75.46
2019-01-06T05:24:01.953Z,76.02
2019-01-06T05:26:48.575Z,76.10
2019-01-06T05:29:37.815Z,75.92
2019-01-06T05:32:39.448Z,75.02
2019-01-06T05:35:27.439Z,75.64
2019-01-06T05:38:04.952Z,75.38
2019-01-06T05:41:06.937Z,75.38
2019-01-06T05:44:04.157Z,76.01
2019-01-06T05:46:49.439Z,76.01
2019-01-06T05:49:38.630Z,75.55
2019-01-06T05:52:34.312Z,75.55
2019-01-06T05:55:19.082Z,75.53
2019-01-06T05:58:04.029Z,75.53
2019-01-06T06:00:52.784Z,75.38
2019-01-06T06:03:39.552Z,75.08
2019-01-06T06:06:17.223Z,75.04
2019-01-06T06:08:59.931Z,74.98
2019-01-06T06:11:48.990Z,74.79
2019-01-06T06:14:33.887Z,74.85
2019-01-06T06:17:22.005Z,75.16
2019-01-06T06:20:06.763Z,75.34
2019-01-06T06:22:47.865Z,74.94
2019-01-06T06:25:35.677Z,74.84
2019-01-06T06:28:20.376Z,74.77
2019-01-06T06:31:00.083Z,74.77
2019-01-06T06:33:44.802Z,75.38
2019-01-06T06:36:40.494Z,75.24
2019-01-06T06:39:22.716Z,75.57
2019-01-06T06:42:08.028Z,75.57
2019-01-06T06:44:47.385Z,75.65
2019-01-06T06:47:32.150Z,75.80
2019-01-06T06:50:17.835Z,75.69
2019-01-06T06:53:10.382Z,75.72
2019-01-06T06:55:55.574Z,75.67
2019-01-06T06:58:40.315Z,75.67
2019-01-06T07:02:01.616Z,76.32
2019-01-06T07:05:02.891Z,76.20
2019-01-06T07:07:47.337Z,76.19
2019-01-06T07:10:32.262Z,76.18
2019-01-06T07:13:26.001Z,76.38
2019-01-06T07:16:22.733Z,75.83
2019-01-06T07:19:18.057Z,75.66
2019-01-06T07:22:03.940Z,76.10
2019-01-06T07:24:59.439Z,76.10
2019-01-06T07:27:40.493Z,75.70
2019-01-06T07:30:26.845Z,75.73
2019-01-06T07:33:11.859Z,75.73
2019-01-06T07:35:54.709Z,75.53
2019-01-06T07:38:44.039Z,75.12
2019-01-06T07:41:30.511Z,75.12
2019-01-06T07:44:20.036Z,75.01
2019-01-06T07:47:05.106Z,75.01
2019-01-06T07:50:03.567Z,75.29
2019-01-06T07:52:55.926Z,74.76
2019-01-06T07:55:36.825Z,74.69
2019-01-06T07:58:32.349Z,75.21
2019-01-06T08:01:17.139Z,75.26
2019-01-06T08:03:58.574Z,75.25
2019-01-06T08:06:45.014Z,75.76
2019-01-06T08:09:44.723Z,76.24
2019-01-06T08:12:33.907Z,75.01
2019-01-06T08:15:20.555Z,75.18
2019-01-06T08:18:15.844Z,75.24
2019-01-06T08:20:57.671Z,75.69
2019-01-06T08:23:46.204Z,75.83
2019-01-06T08:26:27.312Z,75.83
2019-01-06T08:29:16.391Z,76.39
2019-01-06T08:32:03.213Z,76.27
2019-01-06T08:34:42.682Z,76.27
2019-01-06T08:37:31.852Z,76.05
2019-01-06T08:40:19.941Z,76.01
2019-01-06T08:43:08.543Z,75.57
2019-01-06T08:45:53.573Z,75.41
2019-01-06T08:48:42.955Z,75.15
2019-01-06T08:51:34.187Z,75.82
2019-01-06T08:54:23.459Z,75.18
2019-01-06T08:57:08.601Z,75.21
2019-01-06T08:59:53.531Z,74.88
2019-01-06T09:02:51.523Z,74.67
2019-01-06T09:05:43.431Z,74.91
2019-01-06T09:08:24.895Z,75.30
2019-01-06T09:11:26.410Z,75.30
2019-01-06T09:14:19.339Z,75.32
2019-01-06T09:17:20.809Z,75.22
2019-01-06T09:20:05.585Z,75.22
2019-01-06T09:23:03.224Z,75.37
2019-01-06T09:25:48.546Z,74.92
2019-01-06T09:28:33.726Z,74.92
2019-01-06T09:31:23.384Z,76.38
2019-01-06T09:34:15.638Z,76.17
2019-01-06T09:37:25.342Z,75.52
2019-01-06T09:40:14.543Z,76.04
2019-01-06T09:42:56.909Z,75.88
2019-01-06T09:45:41.972Z,76.01
2019-01-06T09:48:40.991Z,75.79
2019-01-06T09:51:30.185Z,75.51
2019-01-06T09:54:15.410Z,75.77
2019-01-06T09:56:57.412Z,76.22
2019-01-06T09:59:58.386Z,76.81
2019-01-06T10:02:41.134Z,77.01
2019-01-06T10:05:26.057Z,76.30
2019-01-06T10:08:11.187Z,76.30
2019-01-06T10:11:07.435Z,76.29
2019-01-06T10:13:59.993Z,76.78
2019-01-06T10:16:50.112Z,76.50
2019-01-06T10:19:35.507Z,76.13
2019-01-06T10:22:21.022Z,76.35
2019-01-06T10:25:07.498Z,75.54
2019-01-06T10:27:48.178Z,75.62
2019-01-06T10:30:34.728Z,75.80
2019-01-06T10:33:19.365Z,75.77
2019-01-06T10:36:07.914Z,75.11
2019-01-06T10:38:58.283Z,74.99
2019-01-06T10:41:41.112Z,75.21
2019-01-06T10:44:33.121Z,74.92
2019-01-06T10:47:31.391Z,74.96
2019-01-06T10:50:16.756Z,73.93
2019-01-06T10:53:01.848Z,73.86
2019-01-06T10:55:46.729Z,73.96
2019-01-06T10:58:33.338Z,73.32
2019-01-06T11:01:28.808Z,74.06
2019-01-06T11:04:23.353Z,74.41
2019-01-06T11:07:28.140Z,74.17
2019-01-06T11:10:17.266Z,73.94
2019-01-06T11:13:06.511Z,72.83
2019-01-06T11:15:47.570Z,72.65
2019-01-06T11:18:33.973Z,72.06
2019-01-06T11:21:32.300Z,72.09
2019-01-06T11:24:17.570Z,72.50
2019-01-06T11:27:16.302Z,72.27
2019-01-06T11:30:08.962Z,72.15
2019-01-06T11:32:53.922Z,72.09
2019-01-06T11:35:40.196Z,72.27
2019-01-06T11:38:25.150Z,72.04
2019-01-06T11:41:10.203Z,71.77
2019-01-06T11:43:50.552Z,71.64
2019-01-06T11:46:35.524Z,71.87
2019-01-06T11:49:27.731Z,71.97
2019-01-06T11:52:12.754Z,71.99
2019-01-06T11:54:57.931Z,71.97
2019-01-06T11:57:43.251Z,72.04
2019-01-06T12:00:41.641Z,72.03
2019-01-06T12:03:26.565Z,71.75
2019-01-06T12:06:31.512Z,71.53
2019-01-06T12:09:20.913Z,71.22
2019-01-06T12:12:01.960Z,71.74
2019-01-06T12:14:54.060Z,71.23
2019-01-06T12:17:40.822Z,71.22
2019-01-06T12:20:30.151Z,71.75
2019-01-06T12:23:24.380Z,71.50
2019-01-06T12:26:19.074Z,71.83
2019-01-06T12:29:04.235Z,72.04
2019-01-06T12:32:04.657Z,71.89
2019-01-06T12:34:49.851Z,72.21
2019-01-06T12:37:48.078Z,71.53
2019-01-06T12:40:31.959Z,71.80
2019-01-06T12:43:16.868Z,71.87
2019-01-06T12:46:00.406Z,71.25
2019-01-06T12:48:45.666Z,71.11
2019-01-06T12:51:28.979Z,71.10
2019-01-06T12:54:21.182Z,70.72
2019-01-06T12:57:08.370Z,70.58
2019-01-06T12:59:54.886Z,70.89
2019-01-06T13:02:40.236Z,71.30
2019-01-06T13:05:25.505Z,71.91
2019-01-06T13:08:12.046Z,72.05
2019-01-06T13:10:56.238Z,71.52
2019-01-06T13:13:41.460Z,71.88
2019-01-06T13:16:30.705Z,72.03
2019-01-06T13:19:16.900Z,72.24
2019-01-06T13:21:59.310Z,72.60
2019-01-06T13:24:42.895Z,72.77
2019-01-06T13:27:29.402Z,72.68
2019-01-06T13:30:12.573Z,72.04
2019-01-06T13:33:01.655Z,72.14
2019-01-06T13:36:00.308Z,72.41
2019-01-06T13:38:42.016Z,71.93
2019-01-06T13:41:27.195Z,71.88
2019-01-06T13:44:12.114Z,71.99
2019-01-06T13:47:01.456Z,72.07
2019-01-06T13:49:46.642Z,72.06
2019-01-06T13:52:31.889Z,71.79
2019-01-06T13:55:24.290Z,71.79
2019-01-06T13:58:09.450Z,71.99
2019-01-06T14:00:47.097Z,72.40
2019-01-06T14:03:44.851Z,71.89
2019-01-06T14:06:37.490Z,71.75
2019-01-06T14:09:23.346Z,71.56
2019-01-06T14:12:09.574Z,71.45
2019-01-06T14:14:56.324Z,71.89
2019-01-06T14:17:52.925Z,71.82
2019-01-06T14:20:39.466Z,71.70
2019-01-06T14:23:29.019Z,71.51
2019-01-06T14:26:24.393Z,71.51
2019-01-06T14:29:13.406Z,71.03
2019-01-06T14:32:02.852Z,71.16
2019-01-06T14:35:00.964Z,71.62
2019-01-06T14:37:53.815Z,72.12
2019-01-06T14:40:48.855Z,72.14
2019-01-06T14:43:38.112Z,71.61
2019-01-06T14:46:24.486Z,71.53
2019-01-06T14:49:10.736Z,71.01
2019-01-06T14:52:00.160Z,70.73
2019-01-06T14:54:45.319Z,70.69
2019-01-06T14:57:50.233Z,70.73
2019-01-06T15:00:35.508Z,70.97
2019-01-06T15:03:22.065Z,70.86
2019-01-06T15:06:17.461Z,71.02
2019-01-06T15:08:56.889Z,71.33
2019-01-06T15:11:58.607Z,71.29
2019-01-06T15:14:43.339Z,71.03
2019-01-06T15:17:28.640Z,71.04
2019-01-06T15:20:24.112Z,71.14
2019-01-06T15:23:08.836Z,71.14
2019-01-06T15:26:04.314Z,71.36
2019-01-06T15:28:59.828Z,71.30
2019-01-06T15:31:53.548Z,71.60
2019-01-06T15:34:46.943Z,71.63
2019-01-06T15:37:36.108Z,71.71
2019-01-06T15:40:22.190Z,71.40
2019-01-06T15:43:17.726Z,71.60
2019-01-06T15:46:02.622Z,71.55
2019-01-06T15:49:07.725Z,72.07
2019-01-06T15:52:06.232Z,71.98
2019-01-06T15:54:44.217Z,72.08
2019-01-06T15:57:33.695Z,72.50
2019-01-06T16:00:18.720Z,72.24
2019-01-06T16:03:20.234Z,72.84
2019-01-06T16:06:25.031Z,73.09
2019-01-06T16:09:12.378Z,73.04
2019-01-06T16:11:57.597Z,72.99
2019-01-06T16:14:53.022Z,73.23
2019-01-06T16:17:40.719Z,73.12
2019-01-06T16:20:29.813Z,72.90
2019-01-06T16:23:15.024Z,73.43
2019-01-06T16:26:03.263Z,73.27
2019-01-06T16:28:48.216Z,73.80
2019-01-06T16:31:34.559Z,73.96
2019-01-06T16:34:21.357Z,73.83
2019-01-06T16:37:19.937Z,73.34
2019-01-06T16:40:06.328Z,73.79
2019-01-06T16:42:52.803Z,74.12
2019-01-06T16:45:34.164Z,73.66
2019-01-06T16:48:20.620Z,74.08
2019-01-06T16:51:04.896Z,74.08
2019-01-06T16:54:01.810Z,73.88
2019-01-06T16:57:03.880Z,73.81
2019-01-06T16:59:48.910Z,73.71
2019-01-06T17:02:33.895Z,74.01
2019-01-06T17:05:27.781Z,74.00
2019-01-06T17:08:29.532Z,74.03
2019-01-06T17:11:30.675Z,74.25
2019-01-06T17:14:15.687Z,74.58
2019-01-06T17:17:12.126Z,74.32
2019-01-06T17:19:57.532Z,74.26
2019-01-06T17:22:43.902Z,74.25
2019-01-06T17:25:44.557Z,73.80
2019-01-06T17:28:29.384Z,74.35
2019-01-06T17:31:33.791Z,74.97
2019-01-06T17:34:18.559Z,74.97
2019-01-06T17:37:23.079Z,75.38
2019-01-06T17:40:16.707Z,75.53
2019-01-06T17:42:56.290Z,75.63
2019-01-06T17:45:58.108Z,75.47
2019-01-06T17:49:00.868Z,74.82
2019-01-06T17:51:44.337Z,74.97
2019-01-06T17:54:28.056Z,74.75
2019-01-06T17:57:23.717Z,75.01
2019-01-06T18:00:03.153Z,74.80
2019-01-06T18:02:48.045Z,74.75
2019-01-06T18:05:32.890Z,74.83
2019-01-06T18:08:18.204Z,75.20
2019-01-06T18:10:58.604Z,75.19
2019-01-06T18:13:43.739Z,74.44
2019-01-06T18:16:29.100Z,74.57
2019-01-06T18:19:15.543Z,75.31
2019-01-06T18:22:02.082Z,75.31
2019-01-06T18:24:47.272Z,75.40
2019-01-06T18:27:33.686Z,75.70
2019-01-06T18:30:35.105Z,76.14
2019-01-06T18:33:20.407Z,76.12
2019-01-06T18:36:06.993Z,75.79
2019-01-06T18:38:53.708Z,75.99
2019-01-06T18:41:55.371Z,75.49
2019-01-06T18:44:35.372Z,75.49
2019-01-06T18:47:42.758Z,75.62
2019-01-06T18:50:41.246Z,75.54
2019-01-06T18:53:39.733Z,75.45
2019-01-06T18:56:29.118Z,75.21
2019-01-06T18:59:21.301Z,76.37
2019-01-06T19:02:07.034Z,76.16
2019-01-06T19:04:59.318Z,76.01
2019-01-06T19:07:48.801Z,75.67
2019-01-06T19:10:40.963Z,75.32
2019-01-06T19:13:27.176Z,75.23
2019-01-06T19:16:12.136Z,75.52
2019-01-06T19:19:07.571Z,75.44
2019-01-06T19:22:00.102Z,75.67
2019-01-06T19:24:45.034Z,75.52
2019-01-06T19:27:31.552Z,75.28
2019-01-06T19:30:30.507Z,75.28
2019-01-06T19:33:16.008Z,75.39
2019-01-06T19:35:54.825Z,75.20
2019-01-06T19:38:52.956Z,75.10
2019-01-06T19:41:38.023Z,74.91
2019-01-06T19:44:23.150Z,75.19
2019-01-06T19:47:02.091Z,75.27
2019-01-06T19:49:47.094Z,75.76
2019-01-06T19:52:29.902Z,77.13
2019-01-06T19:55:34.509Z,77.18
2019-01-06T19:58:27.161Z,77.65
2019-01-06T20:01:12.103Z,77.20
2019-01-06T20:04:12.867Z,76.33
2019-01-06T20:07:11.154Z,75.79
2019-01-06T20:09:57.560Z,75.79
2019-01-06T20:12:55.968Z,75.99
2019-01-06T20:15:41.804Z,76.11
2019-01-06T20:18:34.017Z,76.37
2019-01-06T20:21:23.136Z,76.38
2019-01-06T20:24:11.267Z,76.31
2019-01-06T20:27:00.386Z,76.25
2019-01-06T20:29:50.489Z,76.27
2019-01-06T20:32:35.831Z,76.07
2019-01-06T20:35:21.340Z,76.14
2019-01-06T20:38:26.582Z,76.07
2019-01-06T20:41:06.496Z,76.00
2019-01-06T20:44:11.600Z,76.00
2019-01-06T20:47:09.629Z,76.40
2019-01-06T20:50:14.151Z,76.40
2019-01-06T20:53:09.831Z,76.19
2019-01-06T20:56:04.991Z,76.18
2019-01-06T20:58:51.376Z,76.06
2019-01-06T21:01:47.103Z,75.56
2019-01-06T21:04:32.274Z,75.53
2019-01-06T21:07:15.727Z,75.59
2019-01-06T21:10:17.158Z,74.80
2019-01-06T21:13:02.524Z,75.00
2019-01-06T21:16:05.441Z,75.04
2019-01-06T21:18:50.909Z,74.71
2019-01-06T21:21:43.553Z,73.99
2019-01-06T21:24:28.932Z,74.27
2019-01-06T21:27:11.863Z,74.51
2019-01-06T21:30:04.506Z,74.70
2019-01-06T21:32:49.827Z,75.60
2019-01-06T21:35:44.692Z,75.60
2019-01-06T21:38:50.239Z,75.54
2019-01-06T21:41:52.009Z,75.52
2019-01-06T21:44:36.976Z,75.13
2019-01-06T21:47:22.125Z,75.13
2019-01-06T21:50:17.336Z,75.27
2019-01-06T21:53:05.619Z,75.18
2019-01-06T21:55:50.963Z,75.24
2019-01-06T21:58:38.317Z,75.05
2019-01-06T22:01:37.265Z,75.11
2019-01-06T22:04:20.689Z,75.19
2019-01-06T22:07:08.750Z,75.26
2019-01-06T22:09:55.364Z,74.56
2019-01-06T22:12:50.557Z,74.87
2019-01-06T22:15:44.342Z,74.90
2019-01-06T22:18:39.566Z,74.78
2019-01-06T22:21:25.141Z,75.10
2019-01-06T22:24:04.302Z,75.28
2019-01-06T22:26:46.173Z,75.66
2019-01-06T22:29:34.475Z,75.59
2019-01-06T22:32:27.063Z,75.50
2019-01-06T22:35:25.490Z,75.32
2019-01-06T22:38:17.846Z,75.74
2019-01-06T22:40:56.082Z,75.77
2019-01-06T22:43:54.319Z,75.77
2019-01-06T22:46:32.264Z,75.24
2019-01-06T22:49:16.898Z,75.05
2019-01-06T22:51:52.980Z,75.38
2019-01-06T22:54:48.433Z,74.94
2019-01-06T22:57:33.178Z,74.85
2019-01-06T23:00:31.635Z,75.55
2019-01-06T23:03:26.874Z,76.22
2019-01-06T23:06:24.985Z,75.85
2019-01-06T23:09:09.873Z,75.90
2019-01-06T23:12:01.222Z,75.66
2019-01-06T23:15:02.658Z,75.66
2019-01-06T23:17:47.452Z,75.33
2019-01-06T23:20:33.327Z,75.79
2019-01-06T23:23:28.757Z,76.28
2019-01-06T23:26:32.959Z,76.59
2019-01-06T23:29:22.084Z,76.59
2019-01-06T23:32:08.555Z,76.50
2019-01-06T23:34:47.646Z,76.50
2019-01-06T23:37:34.015Z,76.30
2019-01-06T23:40:27.173Z,76.35
2019-01-06T23:43:17.985Z,76.61
2019-01-06T23:46:16.748Z,77.11
2019-01-06T23:49:10.185Z,76.36
2019-01-06T23:51:59.132Z,76.36
2019-01-06T23:54:44.285Z,76.57
2019-01-06T23:57:41.267Z,77.39
